TimeCST,TemperatureF,Dew PointF,Humidity,Sea Level PressureIn,VisibilityMPH,Wind Direction,Wind SpeedMPH,Gust SpeedMPH,PrecipitationIn,Events,Conditions,WindDirDegrees,DateUTC
12:55 AM,51.1,32.5,49,30.29,10.0,East,4.6,-,N/A,,Overcast,90,2013-01-25 06:55:00
1:55 AM,50.7,32.7,50,30.30,10.0,East,5.8,-,N/A,,Overcast,80,2013-01-25 07:55:00
2:55 AM,50.2,33.1,52,30.30,10.0,NE,5.8,-,N/A,,Overcast,40,2013-01-25 08:55:00
3:55 AM,50.4,31.1,48,30.30,10.0,ENE,5.8,-,N/A,,Overcast,70,2013-01-25 09:55:00
4:51 AM,50.0,30.2,47,30.30,10.0,East,4.6,-,N/A,,Light Drizzle,80,2013-01-25 10:51:00
4:55 AM,50.2,30.9,48,30.30,10.0,ENE,4.6,-,0.00,,Light Drizzle,60,2013-01-25 10:55:00
5:02 AM,50.0,32.0,50,30.30,10.0,East,4.6,-,N/A,,Overcast,80,2013-01-25 11:02:00
5:55 AM,50.9,28.0,41,30.30,10.0,ESE,8.1,-,0.00,,Overcast,110,2013-01-25 11:55:00
6:26 AM,51.8,28.4,41,30.29,10.0,SE,8.1,-,N/A,,Overcast,130,2013-01-25 12:26:00
6:55 AM,50.4,29.1,44,30.29,10.0,ESE,5.8,-,N/A,,Mostly Cloudy,110,2013-01-25 12:55:00
7:19 AM,50.0,30.2,47,30.29,10.0,SE,6.9,-,N/A,,Scattered Clouds,130,2013-01-25 13:19:00
7:55 AM,51.6,30.7,45,30.28,10.0,SE,8.1,-,N/A,,Clear,130,2013-01-25 13:55:00
8:55 AM,55.9,31.1,39,30.27,10.0,SSE,9.2,-,N/A,,Clear,150,2013-01-25 14:55:00
9:55 AM,58.3,34.7,41,30.28,10.0,ESE,6.9,-,N/A,,Clear,110,2013-01-25 15:55:00
10:55 AM,61.0,40.8,47,30.26,10.0,SSE,5.8,-,N/A,,Clear,150,2013-01-25 16:55:00
11:55 AM,64.6,47.8,55,30.22,10.0,SSW,10.4,-,N/A,,Partly Cloudy,210,2013-01-25 17:55:00
12:55 PM,68.2,51.3,55,30.17,10.0,SW,8.1,18.4,N/A,,Partly Cloudy,220,2013-01-25 18:55:00
1:55 PM,69.3,51.1,52,30.14,10.0,SSW,15.0,-,N/A,,Mostly Cloudy,210,2013-01-25 19:55:00
2:55 PM,70.5,51.8,51,30.12,10.0,SSW,12.7,19.6,N/A,,Mostly Cloudy,200,2013-01-25 20:55:00
3:55 PM,69.6,51.4,52,30.12,10.0,SSW,11.5,-,N/A,,Mostly Cloudy,210,2013-01-25 21:55:00
4:55 PM,68.7,51.8,55,30.12,10.0,SSW,11.5,-,N/A,,Overcast,210,2013-01-25 22:55:00
5:55 PM,66.7,52.2,59,30.13,10.0,SSW,4.6,-,N/A,,Overcast,210,2013-01-25 23:55:00
6:55 PM,65.1,52.0,62,30.14,10.0,SW,5.8,-,N/A,,Overcast,230,2013-01-26 00:55:00
7:55 PM,64.4,51.6,63,30.14,10.0,SSW,10.4,-,N/A,,Scattered Clouds,210,2013-01-26 01:55:00
8:55 PM,61.7,52.0,70,30.15,10.0,SW,5.8,-,N/A,,Clear,220,2013-01-26 02:55:00
9:55 PM,59.5,52.0,76,30.16,10.0,SW,4.6,-,N/A,,Overcast,230,2013-01-26 03:55:00
10:55 PM,60.4,52.9,76,30.17,10.0,Calm,Calm,-,N/A,,Overcast,0,2013-01-26 04:55:00
11:55 PM,58.6,52.7,81,30.17,10.0,SW,3.5,-,N/A,,Mostly Cloudy,220,2013-01-26 05:55:00